Terminal Aerodrome Forecast
Issued by NWS

Home | Current Version | Previous Version | Text Only | Print | Product List | Glossary On
Versions: 1 2 3 4 5 6 7 8 9 10 11 12 13 14 15 16 17 18 19 20 21 22 23 24 25
000
FTUS41 KPBZ 310456 AAA
TAFDUJ
TAF AMD
KDUJ 310456Z 3105/3124 10005KT 5SM BR OVC006
     FM310800 00000KT 1/2SM FG BKN006
     FM311300 16003KT 3SM BR BKN008
     FM311500 19005KT P6SM VCSH BKN020
     FM311700 24005KT P6SM VCSH BKN035=

USA.gov is the U.S. government's official web portal to all federal, state and local government web resources and services.